createdAt,value
2022-10-16T00:00:06.434Z,17.10
2022-10-16T00:01:57.165Z,17.10
2022-10-16T00:03:48.236Z,17.10
2022-10-16T00:05:42.944Z,17.10
2022-10-16T00:07:33.261Z,17.10
2022-10-16T00:09:23.588Z,17.10
2022-10-16T00:11:15.737Z,17.00
2022-10-16T00:13:06.509Z,17.00
2022-10-16T00:14:58.222Z,17.00
2022-10-16T00:16:48.595Z,17.00
2022-10-16T00:18:39.264Z,17.10
2022-10-16T00:20:29.712Z,17.00
2022-10-16T00:22:20.044Z,17.00
2022-10-16T00:24:11.014Z,17.10
2022-10-16T00:26:05.140Z,17.10
2022-10-16T00:27:55.492Z,17.10
2022-10-16T00:29:46.178Z,17.20
2022-10-16T00:31:38.481Z,17.20
2022-10-16T00:33:29.041Z,17.10
2022-10-16T00:35:19.951Z,17.10
2022-10-16T00:37:10.245Z,17.20
2022-10-16T00:40:56.511Z,17.20
2022-10-16T00:42:47.003Z,17.30
2022-10-16T00:44:47.743Z,17.30
2022-10-16T00:46:41.353Z,17.30
2022-10-16T00:48:32.017Z,17.20
2022-10-16T00:50:28.260Z,17.10
2022-10-16T00:52:19.033Z,17.10
2022-10-16T00:54:12.931Z,17.10
2022-10-16T00:56:03.697Z,17.10
2022-10-16T00:57:54.342Z,17.10
2022-10-16T00:59:44.730Z,17.00
2022-10-16T01:01:35.312Z,17.10
2022-10-16T01:03:29.664Z,17.00
2022-10-16T01:05:21.463Z,16.90
2022-10-16T01:07:16.060Z,16.80
2022-10-16T01:09:12.590Z,16.70
2022-10-16T01:11:10.368Z,16.70
2022-10-16T01:13:05.593Z,16.70
2022-10-16T01:15:00.078Z,16.70
2022-10-16T01:16:54.534Z,16.60
2022-10-16T01:18:48.877Z,16.60
2022-10-16T01:20:45.211Z,16.60
2022-10-16T01:22:42.096Z,16.50
2022-10-16T01:24:38.264Z,16.50
2022-10-16T01:26:38.660Z,16.40
2022-10-16T01:28:35.616Z,16.40
2022-10-16T01:30:28.554Z,16.40
2022-10-16T01:32:23.346Z,16.30
2022-10-16T01:34:16.468Z,16.30
2022-10-16T01:36:11.417Z,16.30
2022-10-16T01:38:05.375Z,16.20
2022-10-16T01:39:57.756Z,16.20
2022-10-16T01:41:49.917Z,16.20
2022-10-16T01:43:43.475Z,16.20
2022-10-16T01:45:34.471Z,16.10
2022-10-16T01:47:26.956Z,16.20
2022-10-16T01:49:19.111Z,16.20
2022-10-16T01:51:11.624Z,16.20
2022-10-16T01:53:01.876Z,16.20
2022-10-16T01:54:54.129Z,16.10
2022-10-16T01:56:44.661Z,16.10
2022-10-16T01:58:38.446Z,16.20
2022-10-16T02:00:30.707Z,16.10
2022-10-16T02:02:22.619Z,16.00
2022-10-16T02:04:14.597Z,16.00
2022-10-16T02:06:05.004Z,16.00
2022-10-16T02:07:55.622Z,16.00
2022-10-16T02:09:46.632Z,16.10
2022-10-16T02:11:37.006Z,16.10
2022-10-16T02:13:30.241Z,16.00
2022-10-16T02:15:21.048Z,16.00
2022-10-16T02:17:15.652Z,16.00
2022-10-16T02:19:07.150Z,16.10
2022-10-16T02:21:00.780Z,16.10
2022-10-16T02:22:51.772Z,16.00
2022-10-16T02:24:49.374Z,16.10
2022-10-16T02:26:43.856Z,16.10
2022-10-16T02:28:38.568Z,16.00
2022-10-16T02:30:33.398Z,16.00
2022-10-16T02:32:26.663Z,16.00
2022-10-16T02:34:18.087Z,16.00
2022-10-16T02:36:09.127Z,16.00
2022-10-16T02:38:00.318Z,16.10
2022-10-16T02:39:50.553Z,16.00
2022-10-16T02:41:41.131Z,16.10
2022-10-16T02:43:31.331Z,16.10
2022-10-16T02:45:22.905Z,16.10
2022-10-16T02:49:10.056Z,16.20
2022-10-16T02:51:00.450Z,16.20
2022-10-16T02:52:50.877Z,16.20
2022-10-16T02:54:41.244Z,16.10
2022-10-16T02:56:31.700Z,16.10
2022-10-16T02:58:22.073Z,16.10
2022-10-16T03:00:14.561Z,16.10
2022-10-16T03:02:05.017Z,16.20
2022-10-16T03:03:55.442Z,16.10
2022-10-16T03:05:47.045Z,16.10
2022-10-16T03:07:37.863Z,16.10
2022-10-16T03:09:28.736Z,16.00
2022-10-16T03:11:19.308Z,16.10
2022-10-16T03:13:09.839Z,16.10
2022-10-16T03:15:00.203Z,16.20
2022-10-16T03:16:50.261Z,16.10
2022-10-16T03:18:42.030Z,16.20
2022-10-16T03:20:32.267Z,16.10
2022-10-16T03:22:23.880Z,16.10
2022-10-16T03:24:14.648Z,16.10
2022-10-16T03:26:05.218Z,16.10
2022-10-16T03:27:55.892Z,16.20
2022-10-16T03:29:46.356Z,16.10
2022-10-16T03:31:36.903Z,16.20
2022-10-16T03:33:27.480Z,16.10
2022-10-16T03:35:17.810Z,16.10
2022-10-16T03:37:08.186Z,16.10
2022-10-16T03:39:00.010Z,16.00
2022-10-16T03:40:50.377Z,16.00
2022-10-16T03:42:40.728Z,15.90
2022-10-16T03:44:31.025Z,16.00
2022-10-16T03:46:21.705Z,15.90
2022-10-16T03:48:12.050Z,15.90
2022-10-16T03:50:02.829Z,15.90
2022-10-16T03:51:53.332Z,16.00
2022-10-16T03:53:43.961Z,15.90
2022-10-16T03:55:36.157Z,16.00
2022-10-16T03:57:26.735Z,16.00
2022-10-16T03:59:17.436Z,16.00
2022-10-16T04:01:08.389Z,15.90
2022-10-16T04:02:58.608Z,16.00
2022-10-16T04:04:49.079Z,15.90
2022-10-16T04:06:39.476Z,16.00
2022-10-16T04:08:29.773Z,16.00
2022-10-16T04:10:20.368Z,16.00
2022-10-16T04:12:12.073Z,16.00
2022-10-16T04:14:02.832Z,16.00
2022-10-16T04:15:53.568Z,15.90
2022-10-16T04:17:44.029Z,15.90
2022-10-16T04:19:34.295Z,16.00
2022-10-16T04:21:24.622Z,15.90
2022-10-16T04:23:14.901Z,15.90
2022-10-16T04:25:06.185Z,15.90
2022-10-16T04:26:56.526Z,15.90
2022-10-16T04:28:48.544Z,15.90
2022-10-16T04:30:40.713Z,15.80
2022-10-16T04:32:31.469Z,15.90
2022-10-16T04:34:21.889Z,15.90
2022-10-16T04:36:12.864Z,15.90
2022-10-16T04:38:03.280Z,15.90
2022-10-16T04:39:53.701Z,15.90
2022-10-16T04:41:43.943Z,15.80
2022-10-16T04:43:34.843Z,15.90
2022-10-16T04:45:26.777Z,15.80
2022-10-16T04:47:17.706Z,15.80
2022-10-16T04:49:07.989Z,15.80
2022-10-16T04:50:58.294Z,15.90
2022-10-16T04:52:49.133Z,15.90
2022-10-16T04:54:39.350Z,15.90
2022-10-16T04:56:29.716Z,15.90
2022-10-16T04:58:20.057Z,15.90
2022-10-16T05:00:11.426Z,15.90
2022-10-16T05:02:02.925Z,15.90
2022-10-16T05:03:53.514Z,15.90
2022-10-16T05:05:44.635Z,15.80
2022-10-16T05:07:35.285Z,15.90
2022-10-16T05:09:25.724Z,15.90
2022-10-16T05:11:16.094Z,15.90
2022-10-16T05:13:06.724Z,15.90
2022-10-16T05:14:57.096Z,15.90
2022-10-16T05:16:48.141Z,15.90
2022-10-16T05:18:39.912Z,15.90
2022-10-16T05:20:30.650Z,15.90
2022-10-16T05:22:20.963Z,15.90
2022-10-16T05:24:11.168Z,15.90
2022-10-16T05:26:01.476Z,15.90
2022-10-16T05:27:51.718Z,15.90
2022-10-16T05:29:42.043Z,15.80
2022-10-16T05:31:32.277Z,15.80
2022-10-16T05:33:23.309Z,15.80
2022-10-16T05:35:15.974Z,15.80
2022-10-16T05:37:06.549Z,15.70
2022-10-16T05:38:57.058Z,15.70
2022-10-16T05:40:52.482Z,15.60
2022-10-16T05:42:42.964Z,15.60
2022-10-16T05:46:29.215Z,15.60
2022-10-16T05:48:19.899Z,15.50
2022-10-16T05:50:10.253Z,15.50
2022-10-16T05:52:02.189Z,15.40
2022-10-16T05:53:53.286Z,15.50
2022-10-16T05:55:43.799Z,15.60
2022-10-16T05:57:33.960Z,15.60
2022-10-16T05:59:25.001Z,15.50
2022-10-16T06:01:16.685Z,15.60
2022-10-16T06:03:07.158Z,15.60
2022-10-16T06:04:57.677Z,15.60
2022-10-16T06:06:48.153Z,15.70
2022-10-16T06:08:40.112Z,15.70
2022-10-16T06:10:30.261Z,15.70
2022-10-16T06:12:20.821Z,15.70
2022-10-16T06:14:11.489Z,15.70
2022-10-16T06:16:02.190Z,15.70
2022-10-16T06:17:52.667Z,15.70
2022-10-16T06:19:43.191Z,15.80
2022-10-16T06:21:33.445Z,15.70
2022-10-16T06:23:23.993Z,15.80
2022-10-16T06:25:15.905Z,15.80
2022-10-16T06:27:06.592Z,15.70
2022-10-16T06:28:58.891Z,15.70
2022-10-16T06:30:49.191Z,15.70
2022-10-16T06:32:39.547Z,15.70
2022-10-16T06:34:29.942Z,15.80
2022-10-16T06:36:20.706Z,15.80
2022-10-16T06:38:10.956Z,15.80
2022-10-16T06:40:01.148Z,15.80
2022-10-16T06:41:52.842Z,15.80
2022-10-16T06:43:43.421Z,15.80
2022-10-16T06:45:34.124Z,15.80
2022-10-16T06:47:24.478Z,15.70
2022-10-16T06:49:15.111Z,15.80
2022-10-16T06:51:07.441Z,15.90
2022-10-16T06:52:57.934Z,15.90
2022-10-16T06:54:48.411Z,15.80
2022-10-16T06:56:38.974Z,15.80
2022-10-16T06:58:30.549Z,15.80
2022-10-16T07:00:20.902Z,15.90
2022-10-16T07:02:11.384Z,15.90
2022-10-16T07:04:02.594Z,15.80
2022-10-16T07:05:53.344Z,15.80
2022-10-16T07:07:43.725Z,15.80
2022-10-16T07:09:34.394Z,15.70
2022-10-16T07:11:25.071Z,15.70
2022-10-16T07:13:15.711Z,15.80
2022-10-16T07:15:08.895Z,15.90
2022-10-16T07:16:59.425Z,15.80
2022-10-16T07:18:49.651Z,15.80
2022-10-16T07:20:41.167Z,15.80
2022-10-16T07:22:31.878Z,15.90
2022-10-16T07:24:22.662Z,15.90
2022-10-16T07:26:13.103Z,16.00
2022-10-16T07:28:03.881Z,16.00
2022-10-16T07:29:54.341Z,16.00
2022-10-16T07:31:46.228Z,15.90
2022-10-16T07:33:36.726Z,15.90
2022-10-16T07:35:26.994Z,15.90
2022-10-16T07:37:17.549Z,15.90
2022-10-16T07:39:08.007Z,16.00
2022-10-16T07:40:59.283Z,16.00
2022-10-16T07:42:50.191Z,16.00
2022-10-16T07:44:40.817Z,16.10
2022-10-16T07:46:31.333Z,16.10
2022-10-16T07:48:24.020Z,16.20
2022-10-16T07:50:14.597Z,16.20
2022-10-16T07:52:04.905Z,16.20
2022-10-16T07:53:55.624Z,16.20
2022-10-16T07:55:46.212Z,16.30
2022-10-16T07:57:36.547Z,16.30
2022-10-16T07:59:27.124Z,16.40
2022-10-16T08:01:18.934Z,16.30
2022-10-16T08:03:09.769Z,16.40
2022-10-16T08:05:01.400Z,16.40
2022-10-16T08:06:51.725Z,16.50
2022-10-16T08:08:42.200Z,16.50
2022-10-16T08:10:32.432Z,16.50
2022-10-16T08:12:22.860Z,16.50
2022-10-16T08:14:13.109Z,16.50
2022-10-16T08:16:04.139Z,16.50
2022-10-16T08:17:58.772Z,16.70
2022-10-16T08:19:49.459Z,16.70
2022-10-16T08:21:41.663Z,16.70
2022-10-16T08:23:33.083Z,16.60
2022-10-16T08:25:24.303Z,16.80
2022-10-16T08:27:14.878Z,16.80
2022-10-16T08:29:05.589Z,16.80
2022-10-16T08:30:56.013Z,16.90
2022-10-16T08:32:46.973Z,16.90
2022-10-16T08:34:37.695Z,16.90
2022-10-16T08:36:28.229Z,16.80
2022-10-16T08:38:20.133Z,16.90
2022-10-16T08:40:17.718Z,16.90
2022-10-16T08:42:25.492Z,16.90
2022-10-16T08:44:38.052Z,17.00
2022-10-16T08:46:39.156Z,17.00
2022-10-16T08:48:34.358Z,17.10
2022-10-16T08:50:26.704Z,17.10
2022-10-16T08:52:17.234Z,17.10
2022-10-16T08:54:16.952Z,17.10
2022-10-16T08:56:07.990Z,17.10
2022-10-16T08:57:58.576Z,17.20
2022-10-16T08:59:48.984Z,17.20
2022-10-16T09:01:42.253Z,17.20
2022-10-16T09:03:43.311Z,17.20
2022-10-16T09:05:53.292Z,17.30
2022-10-16T09:07:49.672Z,17.30
2022-10-16T09:09:55.150Z,17.30
2022-10-16T09:11:49.996Z,17.40
2022-10-16T09:13:48.567Z,17.30
2022-10-16T09:15:43.536Z,17.30
2022-10-16T09:17:39.270Z,17.40
2022-10-16T09:19:32.456Z,17.40
2022-10-16T09:21:25.172Z,17.40
2022-10-16T09:23:17.838Z,17.50
2022-10-16T09:25:15.156Z,17.50
2022-10-16T09:27:05.412Z,17.50
2022-10-16T09:28:55.973Z,17.50
2022-10-16T09:30:46.974Z,17.60
2022-10-16T09:32:39.192Z,17.60
2022-10-16T09:34:33.576Z,17.70
2022-10-16T09:36:25.372Z,17.70
2022-10-16T09:38:27.719Z,17.70
2022-10-16T09:40:27.904Z,17.70
2022-10-16T09:42:18.700Z,17.80
2022-10-16T09:44:19.723Z,17.70
2022-10-16T09:46:23.532Z,17.70
2022-10-16T09:48:18.773Z,17.70
2022-10-16T09:50:22.990Z,17.80
2022-10-16T09:52:15.577Z,17.70
2022-10-16T09:54:15.762Z,17.60
2022-10-16T09:56:10.422Z,17.60
2022-10-16T09:58:03.912Z,17.50
2022-10-16T09:59:56.385Z,17.60
2022-10-16T10:01:48.566Z,17.60
2022-10-16T10:03:39.311Z,17.60
2022-10-16T10:05:30.469Z,17.70
2022-10-16T10:07:25.687Z,17.60
2022-10-16T10:09:21.666Z,17.70
2022-10-16T10:11:16.048Z,17.80
2022-10-16T10:13:18.851Z,17.80
2022-10-16T10:15:16.625Z,17.80
2022-10-16T10:17:13.691Z,17.70
2022-10-16T10:19:04.881Z,17.60
2022-10-16T10:23:16.303Z,17.70
2022-10-16T10:25:32.849Z,17.70
2022-10-16T10:27:32.116Z,17.80
2022-10-16T10:29:35.485Z,17.90
2022-10-16T10:31:29.491Z,18.00
2022-10-16T10:33:26.015Z,18.00
2022-10-16T10:35:21.838Z,18.00
2022-10-16T10:37:24.782Z,18.10
2022-10-16T10:39:18.976Z,18.10
2022-10-16T10:41:37.869Z,18.10
2022-10-16T10:43:43.726Z,18.10
2022-10-16T10:45:42.884Z,18.30
2022-10-16T10:47:42.374Z,18.30
2022-10-16T10:49:48.088Z,18.30
2022-10-16T10:51:43.822Z,18.50
2022-10-16T10:53:41.521Z,18.50
2022-10-16T10:55:39.132Z,18.60
2022-10-16T10:57:31.402Z,18.50
2022-10-16T10:59:48.983Z,18.40
2022-10-16T11:01:42.437Z,18.30
2022-10-16T11:03:43.852Z,18.20
2022-10-16T11:05:41.481Z,18.20
2022-10-16T11:07:34.939Z,18.30
2022-10-16T11:09:27.992Z,18.40
2022-10-16T11:11:21.744Z,18.30
2022-10-16T11:13:21.293Z,18.50
2022-10-16T11:15:16.667Z,18.60
2022-10-16T11:17:11.323Z,18.60
2022-10-16T11:19:10.102Z,18.60
2022-10-16T11:21:05.629Z,18.70
2022-10-16T11:22:59.501Z,18.70
2022-10-16T11:24:54.555Z,18.70
2022-10-16T11:26:47.463Z,18.70
2022-10-16T11:28:42.600Z,18.80
2022-10-16T11:30:40.451Z,18.70
2022-10-16T11:32:35.013Z,18.70
2022-10-16T11:34:35.531Z,18.80
2022-10-16T11:36:34.583Z,19.00
2022-10-16T11:38:30.298Z,19.10
2022-10-16T11:40:24.716Z,19.20
2022-10-16T11:42:26.005Z,19.20
2022-10-16T11:44:34.783Z,19.30
2022-10-16T11:46:28.014Z,19.30
2022-10-16T11:48:24.395Z,19.30
2022-10-16T11:50:22.041Z,19.40
2022-10-16T11:52:16.352Z,19.40
2022-10-16T11:54:15.995Z,19.40
2022-10-16T11:56:06.704Z,19.40
2022-10-16T11:58:00.440Z,19.50
2022-10-16T11:59:55.086Z,19.50
2022-10-16T12:01:49.941Z,19.50
2022-10-16T12:03:44.918Z,19.60
2022-10-16T12:05:51.752Z,19.60
2022-10-16T12:07:48.835Z,19.70
2022-10-16T12:09:40.717Z,19.70
2022-10-16T12:11:37.432Z,19.70
2022-10-16T12:13:33.053Z,19.80
2022-10-16T12:15:40.934Z,19.90
2022-10-16T12:17:38.131Z,20.00
2022-10-16T12:19:29.947Z,19.90
2022-10-16T12:21:31.141Z,19.70
2022-10-16T12:23:22.199Z,19.80
2022-10-16T12:25:23.384Z,19.80
2022-10-16T12:27:24.280Z,19.80
2022-10-16T12:29:20.654Z,19.80
2022-10-16T12:31:11.461Z,19.80
2022-10-16T12:33:05.481Z,19.80
2022-10-16T12:34:56.111Z,19.70
2022-10-16T12:36:46.795Z,19.70
2022-10-16T12:38:52.437Z,19.70
2022-10-16T12:40:45.293Z,19.70
2022-10-16T12:42:37.576Z,19.80
2022-10-16T12:44:33.651Z,20.00
2022-10-16T12:46:36.021Z,19.90
2022-10-16T12:48:36.844Z,20.00
2022-10-16T12:50:40.434Z,20.10
2022-10-16T12:52:37.434Z,20.10
2022-10-16T12:54:33.412Z,20.10
2022-10-16T12:56:29.715Z,20.10
2022-10-16T12:58:45.234Z,20.20
2022-10-16T13:00:42.536Z,20.20
2022-10-16T13:03:17.056Z,20.20
2022-10-16T13:05:22.998Z,20.30
2022-10-16T13:07:34.273Z,20.40
2022-10-16T13:09:44.485Z,20.40
2022-10-16T13:11:58.881Z,20.40
2022-10-16T13:14:05.388Z,20.30
2022-10-16T13:16:06.613Z,20.30
2022-10-16T13:18:05.479Z,20.40
2022-10-16T13:20:02.038Z,20.30
2022-10-16T13:22:00.146Z,20.30
2022-10-16T13:23:58.462Z,20.30
2022-10-16T13:26:00.562Z,20.20
2022-10-16T13:27:55.516Z,20.20
2022-10-16T13:29:54.012Z,20.10
2022-10-16T13:31:45.354Z,20.00
2022-10-16T13:33:38.397Z,20.00
2022-10-16T13:35:31.099Z,19.80
2022-10-16T13:37:25.502Z,19.90
2022-10-16T13:39:21.538Z,19.80
2022-10-16T13:41:17.087Z,19.70
2022-10-16T13:43:08.838Z,19.70
2022-10-16T13:44:59.009Z,19.70
2022-10-16T13:46:59.388Z,19.70
2022-10-16T13:48:58.322Z,19.80
2022-10-16T13:50:59.935Z,19.90
2022-10-16T13:52:51.802Z,19.90
2022-10-16T13:54:42.497Z,19.70
2022-10-16T13:56:34.009Z,19.70
2022-10-16T13:58:24.701Z,19.70
2022-10-16T14:00:23.784Z,19.70
2022-10-16T14:02:22.764Z,19.70
2022-10-16T14:04:14.860Z,19.70
2022-10-16T14:06:07.754Z,19.70
2022-10-16T14:08:00.236Z,19.70
2022-10-16T14:09:51.759Z,19.60
2022-10-16T14:11:47.262Z,19.70
2022-10-16T14:13:39.193Z,19.70
2022-10-16T14:15:30.548Z,19.80
2022-10-16T14:17:23.608Z,19.80
2022-10-16T14:19:18.398Z,19.80
2022-10-16T14:21:14.142Z,19.80
2022-10-16T14:23:20.677Z,19.80
2022-10-16T14:25:24.425Z,19.80
2022-10-16T14:27:26.080Z,19.80
2022-10-16T14:29:19.726Z,19.90
2022-10-16T14:31:31.333Z,19.80
2022-10-16T14:33:23.873Z,19.60
2022-10-16T14:35:25.166Z,19.60
2022-10-16T14:37:21.567Z,19.40
2022-10-16T14:39:20.429Z,19.40
2022-10-16T14:41:11.177Z,19.50
2022-10-16T14:43:02.540Z,19.40
2022-10-16T14:44:53.461Z,19.40
2022-10-16T14:46:44.947Z,19.30
2022-10-16T14:48:35.711Z,19.30
2022-10-16T14:50:26.889Z,19.40
2022-10-16T14:52:17.356Z,19.40
2022-10-16T14:54:09.524Z,19.50
2022-10-16T14:56:07.561Z,19.40
2022-10-16T14:58:00.584Z,19.40
2022-10-16T14:59:51.779Z,19.40
2022-10-16T15:01:43.922Z,19.40
2022-10-16T15:03:34.287Z,19.30
2022-10-16T15:05:28.659Z,19.20
2022-10-16T15:07:19.655Z,19.20
2022-10-16T15:09:10.549Z,19.30
2022-10-16T15:11:02.549Z,19.40
2022-10-16T15:12:53.274Z,19.40
2022-10-16T15:14:43.665Z,19.40
2022-10-16T15:16:34.338Z,19.30
2022-10-16T15:18:24.918Z,19.30
2022-10-16T15:20:15.905Z,19.20
2022-10-16T15:22:06.695Z,19.10
2022-10-16T15:23:57.988Z,19.00
2022-10-16T15:25:50.396Z,19.00
2022-10-16T15:27:45.474Z,19.00
2022-10-16T15:29:36.468Z,18.90
2022-10-16T15:31:27.712Z,18.80
2022-10-16T15:33:20.249Z,18.90
2022-10-16T15:35:13.635Z,18.80
2022-10-16T15:37:04.388Z,18.70
2022-10-16T15:38:54.970Z,18.70
2022-10-16T15:40:46.344Z,18.80
2022-10-16T15:42:37.000Z,18.90
2022-10-16T15:44:28.588Z,18.90
2022-10-16T15:46:26.217Z,19.00
2022-10-16T15:48:16.570Z,18.90
2022-10-16T15:50:08.063Z,18.80
2022-10-16T15:51:58.430Z,18.60
2022-10-16T15:53:49.046Z,18.60
2022-10-16T15:55:42.023Z,18.60
2022-10-16T15:57:32.568Z,18.50
2022-10-16T15:59:23.239Z,18.60
2022-10-16T16:01:15.180Z,18.60
2022-10-16T16:03:06.097Z,18.60
2022-10-16T16:04:56.593Z,18.60
2022-10-16T16:06:47.645Z,18.50
2022-10-16T16:08:40.586Z,18.50
2022-10-16T16:10:31.044Z,18.40
2022-10-16T16:12:22.474Z,18.40
2022-10-16T16:14:14.018Z,18.50
2022-10-16T16:16:07.082Z,18.60
2022-10-16T16:17:59.307Z,18.60
2022-10-16T16:19:50.699Z,18.70
2022-10-16T16:21:41.381Z,18.70
2022-10-16T16:23:32.293Z,18.70
2022-10-16T16:25:22.517Z,18.70
2022-10-16T16:27:13.681Z,18.60
2022-10-16T16:29:04.790Z,18.60
2022-10-16T16:30:55.583Z,18.60
2022-10-16T16:33:25.212Z,18.50
2022-10-16T16:35:19.570Z,18.30
2022-10-16T16:37:28.388Z,18.30
2022-10-16T16:39:42.844Z,18.30
2022-10-16T16:41:33.904Z,18.30
2022-10-16T16:43:32.660Z,18.30
2022-10-16T16:45:23.455Z,18.30
2022-10-16T16:47:13.988Z,18.20
2022-10-16T16:49:38.306Z,18.30
2022-10-16T16:51:29.934Z,18.40
2022-10-16T16:53:25.885Z,18.40
2022-10-16T16:55:16.257Z,18.40
2022-10-16T16:57:07.149Z,18.40
2022-10-16T16:59:07.381Z,18.40
2022-10-16T17:01:19.559Z,18.40
2022-10-16T17:03:11.150Z,18.30
2022-10-16T17:05:02.799Z,18.30
2022-10-16T17:06:56.172Z,18.30
2022-10-16T17:08:46.627Z,18.30
2022-10-16T17:10:43.787Z,18.30
2022-10-16T17:12:34.153Z,18.20
2022-10-16T17:14:24.864Z,18.10
2022-10-16T17:16:16.611Z,18.20
2022-10-16T17:18:07.116Z,18.20
2022-10-16T17:19:57.657Z,18.20
2022-10-16T17:21:50.802Z,18.10
2022-10-16T17:23:41.607Z,18.10
2022-10-16T17:25:34.162Z,18.00
2022-10-16T17:27:25.059Z,18.00
2022-10-16T17:29:16.536Z,18.00
2022-10-16T17:31:11.772Z,18.10
2022-10-16T17:33:02.510Z,18.00
2022-10-16T17:34:52.946Z,18.00
2022-10-16T17:36:43.666Z,18.10
2022-10-16T17:38:35.697Z,18.00
2022-10-16T17:40:26.248Z,18.10
2022-10-16T17:42:16.702Z,18.00
2022-10-16T17:44:07.661Z,18.00
2022-10-16T17:45:58.145Z,17.90
2022-10-16T17:47:48.494Z,17.90
2022-10-16T17:49:39.111Z,17.90
2022-10-16T17:51:31.118Z,17.90
2022-10-16T17:53:21.685Z,17.80
2022-10-16T17:55:13.447Z,17.80
2022-10-16T17:57:03.755Z,17.70
2022-10-16T17:58:55.817Z,17.60
2022-10-16T18:00:46.336Z,17.60
2022-10-16T18:02:36.976Z,17.60
2022-10-16T18:04:28.255Z,17.60
2022-10-16T18:06:22.996Z,17.60
2022-10-16T18:08:13.979Z,17.50
2022-10-16T18:10:12.586Z,17.50
2022-10-16T18:12:05.712Z,17.50
2022-10-16T18:13:57.706Z,17.40
2022-10-16T18:15:48.242Z,17.50
2022-10-16T18:17:38.616Z,17.50
2022-10-16T18:19:29.106Z,17.50
2022-10-16T18:21:20.773Z,17.50
2022-10-16T18:23:11.626Z,17.50
2022-10-16T18:25:02.257Z,17.40
2022-10-16T18:26:53.911Z,17.40
2022-10-16T18:28:45.746Z,17.40
2022-10-16T18:30:36.368Z,17.40
2022-10-16T18:32:27.376Z,17.40
2022-10-16T18:34:18.145Z,17.40
2022-10-16T18:36:09.989Z,17.30
2022-10-16T18:38:00.524Z,17.30
2022-10-16T18:39:51.560Z,17.30
2022-10-16T18:41:43.978Z,17.30
2022-10-16T18:43:35.365Z,17.30
2022-10-16T18:45:27.451Z,17.30
2022-10-16T18:47:18.109Z,17.30
2022-10-16T18:49:08.562Z,17.20
2022-10-16T18:51:08.443Z,17.20
2022-10-16T18:52:58.914Z,17.10
2022-10-16T18:54:49.226Z,17.00
2022-10-16T18:56:40.241Z,17.00
2022-10-16T18:58:31.137Z,17.00
2022-10-16T19:00:24.185Z,17.00
2022-10-16T19:02:16.032Z,17.00
2022-10-16T19:04:08.298Z,17.00
2022-10-16T19:06:03.038Z,17.00
2022-10-16T19:07:53.424Z,16.90
2022-10-16T19:09:43.879Z,16.90
2022-10-16T19:11:39.154Z,16.90
2022-10-16T19:13:31.852Z,16.90
2022-10-16T19:15:22.606Z,16.90
2022-10-16T19:17:17.692Z,16.80
2022-10-16T19:19:11.807Z,16.80
2022-10-16T19:21:02.886Z,16.70
2022-10-16T19:22:54.558Z,16.70
2022-10-16T19:24:45.089Z,16.60
2022-10-16T19:26:38.149Z,16.60
2022-10-16T19:28:31.828Z,16.60
2022-10-16T19:30:22.562Z,16.60
2022-10-16T19:32:13.157Z,16.60
2022-10-16T19:34:05.291Z,16.60
2022-10-16T19:36:06.324Z,16.60
2022-10-16T19:37:56.682Z,16.60
2022-10-16T19:39:49.461Z,16.60
2022-10-16T19:41:40.004Z,16.50
2022-10-16T19:43:30.551Z,16.50
2022-10-16T19:45:20.999Z,16.50
2022-10-16T19:47:11.621Z,16.50
2022-10-16T19:49:03.926Z,16.40
2022-10-16T19:50:55.757Z,16.40
2022-10-16T19:52:46.555Z,16.40
2022-10-16T19:54:37.423Z,16.40
2022-10-16T19:56:32.254Z,16.40
2022-10-16T19:58:22.918Z,16.40
2022-10-16T20:00:14.153Z,16.40
2022-10-16T20:02:04.538Z,16.40
2022-10-16T20:03:55.752Z,16.40
2022-10-16T20:05:53.213Z,16.40
2022-10-16T20:07:45.533Z,16.40
2022-10-16T20:09:36.677Z,16.40
2022-10-16T20:11:29.498Z,16.40
2022-10-16T20:13:22.207Z,16.40
2022-10-16T20:15:13.242Z,16.40
2022-10-16T20:17:04.010Z,16.40
2022-10-16T20:18:55.395Z,16.40
2022-10-16T20:20:47.429Z,16.40
2022-10-16T20:22:39.352Z,16.40
2022-10-16T20:24:31.406Z,16.40
2022-10-16T20:26:25.487Z,16.40
2022-10-16T20:28:18.513Z,16.40
2022-10-16T20:30:10.302Z,16.40
2022-10-16T20:32:00.943Z,16.40
2022-10-16T20:33:53.024Z,16.40
2022-10-16T20:35:44.882Z,16.40
2022-10-16T20:37:37.387Z,16.40
2022-10-16T20:39:28.294Z,16.40
2022-10-16T20:41:20.110Z,16.30
2022-10-16T20:43:16.581Z,16.30
2022-10-16T20:45:08.566Z,16.30
2022-10-16T20:47:01.842Z,16.40
2022-10-16T20:48:53.509Z,16.40
2022-10-16T20:50:44.248Z,16.40
2022-10-16T20:52:35.136Z,16.50
2022-10-16T20:54:25.906Z,16.40
2022-10-16T20:56:16.720Z,16.40
2022-10-16T20:58:09.361Z,16.50
2022-10-16T21:00:00.143Z,16.50
2022-10-16T21:01:50.570Z,16.60
2022-10-16T21:03:43.253Z,16.60
2022-10-16T21:05:33.857Z,16.60
2022-10-16T21:07:24.486Z,16.60
2022-10-16T21:09:15.360Z,16.60
2022-10-16T21:11:13.270Z,16.60
2022-10-16T21:13:04.281Z,16.60
2022-10-16T21:15:14.039Z,16.60
2022-10-16T21:17:05.927Z,16.60
2022-10-16T21:18:57.995Z,16.60
2022-10-16T21:20:51.642Z,16.60
2022-10-16T21:22:42.036Z,16.60
2022-10-16T21:24:32.428Z,16.50
2022-10-16T21:26:23.736Z,16.60
2022-10-16T21:28:13.989Z,16.60
2022-10-16T21:30:07.405Z,16.60
2022-10-16T21:31:58.376Z,16.60
2022-10-16T21:33:49.738Z,16.60
2022-10-16T21:35:40.173Z,16.60
2022-10-16T21:37:30.993Z,16.60
2022-10-16T21:39:22.382Z,16.60
2022-10-16T21:41:14.761Z,16.60
2022-10-16T21:43:05.459Z,16.60
2022-10-16T21:44:55.837Z,16.60
2022-10-16T21:46:47.568Z,16.70
2022-10-16T21:48:39.022Z,16.60
2022-10-16T21:50:29.633Z,16.70
2022-10-16T21:52:20.038Z,16.70
2022-10-16T21:54:12.775Z,16.70
2022-10-16T21:56:03.947Z,16.80
2022-10-16T21:57:54.551Z,16.80
2022-10-16T21:59:45.077Z,16.80
2022-10-16T22:01:35.688Z,16.80
2022-10-16T22:03:27.789Z,16.80
2022-10-16T22:05:18.328Z,16.80
2022-10-16T22:07:08.852Z,16.80
2022-10-16T22:09:00.586Z,16.80
2022-10-16T22:10:51.422Z,16.90
2022-10-16T22:12:41.844Z,16.80
2022-10-16T22:14:32.058Z,16.80
2022-10-16T22:16:24.055Z,16.80
2022-10-16T22:18:14.557Z,16.80
2022-10-16T22:20:07.582Z,16.90
2022-10-16T22:21:58.301Z,16.90
2022-10-16T22:23:48.901Z,16.80
2022-10-16T22:25:39.574Z,16.90
2022-10-16T22:27:30.587Z,16.80
2022-10-16T22:29:21.026Z,16.90
2022-10-16T22:31:13.082Z,16.90
2022-10-16T22:33:03.714Z,16.90
2022-10-16T22:34:54.557Z,16.90
2022-10-16T22:36:48.600Z,16.90
2022-10-16T22:38:39.590Z,16.80
2022-10-16T22:40:30.055Z,16.80
2022-10-16T22:42:20.496Z,16.70
2022-10-16T22:44:13.980Z,16.70
2022-10-16T22:46:04.824Z,16.70
2022-10-16T22:47:55.083Z,16.70
2022-10-16T22:49:45.492Z,16.70
2022-10-16T22:51:35.883Z,16.70
2022-10-16T22:53:28.049Z,16.70
2022-10-16T22:55:18.692Z,16.70
2022-10-16T22:57:09.251Z,16.60
2022-10-16T22:58:59.899Z,16.60
2022-10-16T23:00:50.852Z,16.60
2022-10-16T23:02:41.502Z,16.70
2022-10-16T23:04:32.625Z,16.70
2022-10-16T23:06:23.749Z,16.70
2022-10-16T23:08:14.201Z,16.70
2022-10-16T23:10:07.395Z,16.70
2022-10-16T23:11:58.080Z,16.60
2022-10-16T23:13:48.794Z,16.60
2022-10-16T23:15:39.788Z,16.60
2022-10-16T23:17:30.168Z,16.60
2022-10-16T23:19:20.610Z,16.60
2022-10-16T23:21:12.428Z,16.50
2022-10-16T23:23:02.755Z,16.50
2022-10-16T23:24:53.220Z,16.50
2022-10-16T23:26:44.829Z,16.60
2022-10-16T23:28:35.693Z,16.60
2022-10-16T23:30:26.266Z,16.50
2022-10-16T23:32:16.763Z,16.50
2022-10-16T23:34:07.329Z,16.40
2022-10-16T23:35:58.237Z,16.50
2022-10-16T23:37:48.628Z,16.50
2022-10-16T23:39:39.267Z,16.50
2022-10-16T23:41:29.957Z,16.40
2022-10-16T23:43:22.942Z,16.40
2022-10-16T23:45:13.604Z,16.40
2022-10-16T23:47:04.410Z,16.40
2022-10-16T23:48:54.803Z,16.40
2022-10-16T23:50:45.660Z,16.40
2022-10-16T23:52:36.792Z,16.40
2022-10-16T23:54:27.566Z,16.30
2022-10-16T23:56:18.515Z,16.40
2022-10-16T23:58:09.101Z,16.30
